LaFayette, GA

4:25 PM EDT on September 04, 2015 (GMT -0400)
RAWS | | Change Station
CLOSE
Current Station
Personal Weather Station
Location: La Fayette, GA
Elevation: 1151 ft
Nearby Weather Stations

Elev 1151 ft 34.70 °N, 85.17 °W | Updated 1 hour ago

Scattered Clouds
Scattered Clouds
91.0 °F
Feels Like 91.0 °F
N
2.0
Wind Variable Wind from NNE
Gusts 8.0 mph

Today
High -- | Low -- °F
--% Chance of Precip.
Yesterday
High -- | Low -- °F
Precip. -- in
7:15 AM 8:03 PM
Waning Gibbous, 56% visible
Pressure 29.98 in
Visibility 10.0 miles
Clouds Scattered Clouds 4600 ft
Dew Point 67.0 °F
Humidity 46%
Rainfall in
Snow Depth Not available.
UV 6 out of 12
Pollen 9.70 out of 12
Air Quality Not available.
Flu Activity Not available.
METAR KCHA 041953Z 35009KT 10SM SCT046 33/20 A3001 RMK AO2 SLP151 T03330200
Pressure 29.98 in
Visibility 10.0 miles
Clouds Scattered Clouds 4600 ft
Dew Point 67.0 °F
Humidity 46%
Rainfall in
Snow Depth Not available.
UV 6 out of 12
Pollen 9.70 out of 12
Air Quality Not available.
Flu Activity Not available.
METAR KCHA 041953Z 35009KT 10SM SCT046 33/20 A3001 RMK AO2 SLP151 T03330200

10-Day Weather Forecast

×

Almanac

Astronomy

Sep. 04, 2015 Rise Set
Actual Time
Civil Twilight
Nautical Twilight
Astronomical Twilight
Moon
Length of Visible Light
Length of Day
Tomorrow will be .
, % of the Moon is Illuminated

Today's Extremes

State Highs State Lows

Community

WunderPhotos

Upload Photos

1,852,272 photos uploaded!

WunderBlogs® & News

Nearby

Air Quality

  Air Quality AQ Index Pollutant
Not available.

Snow Depth

Station Depth Elevation

Earthquake Activity

City Distance Mag. Time & Date
Minimum magnitude displayed is 2.5.

Coastal Water Temperatures

Place Temperature

Stations

Nearby Weather Stations

Station Location Temp. Windchill Dew Point Humidity Wind Precip. Elev Updated Type